This is the latest recevied weather packets stored in our database for station/object N8QQ. If no packets are shown the sender has not sent any weather packets the latest 10 day(s).
| Time | Temp. | Humidity | Pressure | Rain* | Wind** | Luminosity | Snow |
|---|---|---|---|---|---|---|---|
| 1777359041 | 15° C | 99% | 1003.6 hPa | 4.57 mm | - | - | - |
| 1777357827 | 15° C | 99% | 1007.1 hPa | 7.62 mm | - | - | - |
| 1777357230 | 15° C | 99% | 1007.7 hPa | 14.48 mm | - | - | - |
| 1777353015 | 15.56° C | 99% | 1004.9 hPa | 7.37 mm | - | - | - |
| 1777350031 | 15.56° C | 99% | 1005.3 hPa | 5.33 mm | - | - | - |
| 1777339256 | 16.11° C | 99% | 1008.7 hPa | 5.59 mm | - | - | - |
| 1777332023 | 17.22° C | 95% | 1009.8 hPa | 1.78 mm | - | - | - |
| 1777328444 | 20.56° C | 83% | 1008.4 hPa | 0 mm | - | - | - |
| 1777320032 | 24.44° C | 61% | 1007.8 hPa | 0 mm | - | - | - |
| 1777316425 | 25° C | 61% | 1008 hPa | 0 mm | - | - | - |
| 1777315816 | 24.44° C | 63% | 1008 hPa | 0 mm | - | - | - |
| 1777314026 | 25° C | 64% | 1009.1 hPa | 0 mm | - | - | - |
| 1777313429 | 25° C | 65% | 1009.1 hPa | 0 mm | - | - | - |
| 1777310426 | 25° C | 64% | 1010.1 hPa | 0 mm | - | - | - |
| 1777308617 | 23.33° C | 65% | 1010 hPa | 0 mm | - | - | - |
| 1777308021 | 23.89° C | 65% | 1009.8 hPa | 0 mm | - | - | - |
| 1777299032 | 17.22° C | 77% | 1011.7 hPa | 0 mm | - | - | - |
| 1777290621 | 10.56° C | 96% | 1011.8 hPa | 0 mm | - | - | - |
| 1777288831 | 8.89° C | 99% | 1011.7 hPa | 0 mm | - | - | - |
| 1777287638 | 7.78° C | 99% | 1011.7 hPa | 0 mm | - | - | - |
| 1777284019 | 8.33° C | 98% | 1012.1 hPa | 0 mm | - | - | - |
| 1777282825 | 8.33° C | 98% | 1012.3 hPa | 0 mm | - | - | - |
| 1777279226 | 8.89° C | 97% | 1012.3 hPa | 0 mm | - | - | - |
| 1777278020 | 9.44° C | 98% | 1011.9 hPa | 0 mm | - | - | - |
| 1777272023 | 8.89° C | 94% | 1012.2 hPa | 0 mm | - | - | - |
* Rain latest hour (hover to see other rain measurements)
** Current wind speed in m/s (hover to see current wind gust speed)